sensor_id;sensor_type;location;lat;lon;timestamp;P1;durP1;ratioP1;P2;durP2;ratioP2
38717;SDS011;24468;52.128;9.278;2022-12-08T00:01:15;8.43;;;5.22;;
38717;SDS011;24468;52.128;9.278;2022-12-08T00:03:44;12.43;;;5.43;;
38717;SDS011;24468;52.128;9.278;2022-12-08T00:11:50;7.78;;;5.38;;
38717;SDS011;24468;52.128;9.278;2022-12-08T00:14:30;6.50;;;5.45;;
38717;SDS011;24468;52.128;9.278;2022-12-08T00:16:58;11.80;;;5.20;;
38717;SDS011;24468;52.128;9.278;2022-12-08T00:19:25;14.88;;;5.60;;
38717;SDS011;24468;52.128;9.278;2022-12-08T00:21:51;10.07;;;5.70;;
38717;SDS011;24468;52.128;9.278;2022-12-08T00:24:18;8.18;;;5.38;;
38717;SDS011;24468;52.128;9.278;2022-12-08T00:26:45;10.45;;;5.32;;
38717;SDS011;24468;52.128;9.278;2022-12-08T00:29:12;7.90;;;5.90;;
38717;SDS011;24468;52.128;9.278;2022-12-08T00:31:38;8.35;;;4.97;;
38717;SDS011;24468;52.128;9.278;2022-12-08T00:34:03;11.25;;;5.65;;
38717;SDS011;24468;52.128;9.278;2022-12-08T00:36:29;8.98;;;5.68;;
38717;SDS011;24468;52.128;9.278;2022-12-08T00:38:55;7.22;;;5.45;;
38717;SDS011;24468;52.128;9.278;2022-12-08T00:41:22;6.47;;;4.07;;
38717;SDS011;24468;52.128;9.278;2022-12-08T00:44:09;8.52;;;5.50;;
38717;SDS011;24468;52.128;9.278;2022-12-08T00:46:39;9.35;;;5.47;;
38717;SDS011;24468;52.128;9.278;2022-12-08T00:49:06;10.63;;;5.47;;
38717;SDS011;24468;52.128;9.278;2022-12-08T00:51:32;6.85;;;5.20;;
38717;SDS011;24468;52.128;9.278;2022-12-08T00:53:58;9.25;;;5.20;;
38717;SDS011;24468;52.128;9.278;2022-12-08T00:56:24;10.15;;;6.05;;
38717;SDS011;24468;52.128;9.278;2022-12-08T00:58:50;9.63;;;5.63;;
38717;SDS011;24468;52.128;9.278;2022-12-08T01:01:16;8.45;;;5.35;;
38717;SDS011;24468;52.128;9.278;2022-12-08T01:03:42;8.48;;;5.20;;
38717;SDS011;24468;52.128;9.278;2022-12-08T01:06:08;9.10;;;5.57;;
38717;SDS011;24468;52.128;9.278;2022-12-08T01:08:34;11.02;;;5.45;;
38717;SDS011;24468;52.128;9.278;2022-12-08T01:11:09;8.80;;;5.43;;
38717;SDS011;24468;52.128;9.278;2022-12-08T01:13:42;7.60;;;5.30;;
38717;SDS011;24468;52.128;9.278;2022-12-08T01:16:09;8.52;;;5.35;;
38717;SDS011;24468;52.128;9.278;2022-12-08T01:18:42;7.70;;;5.35;;
38717;SDS011;24468;52.128;9.278;2022-12-08T01:21:07;8.80;;;4.65;;
38717;SDS011;24468;52.128;9.278;2022-12-08T01:23:33;7.47;;;4.60;;
38717;SDS011;24468;52.128;9.278;2022-12-08T01:26:03;7.82;;;5.35;;
38717;SDS011;24468;52.128;9.278;2022-12-08T01:28:30;11.85;;;5.40;;
38717;SDS011;24468;52.128;9.278;2022-12-08T01:30:57;12.48;;;5.97;;
38717;SDS011;24468;52.128;9.278;2022-12-08T01:33:25;13.40;;;6.43;;
38717;SDS011;24468;52.128;9.278;2022-12-08T01:35:51;10.35;;;5.85;;
38717;SDS011;24468;52.128;9.278;2022-12-08T01:38:17;8.48;;;5.57;;
38717;SDS011;24468;52.128;9.278;2022-12-08T01:40:43;12.10;;;6.38;;
38717;SDS011;24468;52.128;9.278;2022-12-08T01:43:16;8.43;;;5.40;;
38717;SDS011;24468;52.128;9.278;2022-12-08T01:45:44;11.00;;;5.68;;
38717;SDS011;24468;52.128;9.278;2022-12-08T01:48:12;10.50;;;5.70;;
38717;SDS011;24468;52.128;9.278;2022-12-08T01:50:49;7.05;;;5.55;;
38717;SDS011;24468;52.128;9.278;2022-12-08T01:53:25;10.15;;;6.88;;
38717;SDS011;24468;52.128;9.278;2022-12-08T01:56:10;7.18;;;6.05;;
38717;SDS011;24468;52.128;9.278;2022-12-08T01:58:50;11.98;;;6.22;;
38717;SDS011;24468;52.128;9.278;2022-12-08T02:01:19;10.73;;;5.85;;
38717;SDS011;24468;52.128;9.278;2022-12-08T02:03:46;15.52;;;6.47;;
38717;SDS011;24468;52.128;9.278;2022-12-08T02:06:19;11.85;;;5.85;;
38717;SDS011;24468;52.128;9.278;2022-12-08T02:08:45;10.70;;;6.47;;
38717;SDS011;24468;52.128;9.278;2022-12-08T02:11:11;6.95;;;5.90;;
38717;SDS011;24468;52.128;9.278;2022-12-08T02:13:37;8.52;;;6.32;;
38717;SDS011;24468;52.128;9.278;2022-12-08T02:21:56;10.27;;;6.88;;
38717;SDS011;24468;52.128;9.278;2022-12-08T02:24:37;11.25;;;6.28;;
38717;SDS011;24468;52.128;9.278;2022-12-08T02:36:53;13.75;;;7.93;;
38717;SDS011;24468;52.128;9.278;2022-12-08T02:45:12;12.73;;;7.88;;
38717;SDS011;24468;52.128;9.278;2022-12-08T02:47:45;11.75;;;7.65;;
38717;SDS011;24468;52.128;9.278;2022-12-08T02:50:11;11.82;;;7.90;;
38717;SDS011;24468;52.128;9.278;2022-12-08T02:52:39;10.05;;;8.02;;
38717;SDS011;24468;52.128;9.278;2022-12-08T02:55:13;15.85;;;8.23;;
38717;SDS011;24468;52.128;9.278;2022-12-08T03:03:27;10.65;;;8.25;;
38717;SDS011;24468;52.128;9.278;2022-12-08T03:08:57;12.73;;;8.60;;
38717;SDS011;24468;52.128;9.278;2022-12-08T03:12:27;11.35;;;8.45;;
38717;SDS011;24468;52.128;9.278;2022-12-08T03:14:49;15.10;;;8.93;;
38717;SDS011;24468;52.128;9.278;2022-12-08T03:17:19;10.50;;;7.68;;
38717;SDS011;24468;52.128;9.278;2022-12-08T03:19:48;10.80;;;8.07;;
38717;SDS011;24468;52.128;9.278;2022-12-08T03:22:14;10.65;;;8.00;;
38717;SDS011;24468;52.128;9.278;2022-12-08T03:27:19;13.30;;;8.70;;
38717;SDS011;24468;52.128;9.278;2022-12-08T03:29:48;11.50;;;7.85;;
38717;SDS011;24468;52.128;9.278;2022-12-08T03:35:14;12.15;;;8.07;;
38717;SDS011;24468;52.128;9.278;2022-12-08T03:37:45;13.93;;;9.35;;
38717;SDS011;24468;52.128;9.278;2022-12-08T03:40:12;10.73;;;8.85;;
38717;SDS011;24468;52.128;9.278;2022-12-08T03:42:41;10.48;;;8.32;;
38717;SDS011;24468;52.128;9.278;2022-12-08T03:45:07;12.02;;;9.23;;
38717;SDS011;24468;52.128;9.278;2022-12-08T03:47:33;19.25;;;10.32;;
38717;SDS011;24468;52.128;9.278;2022-12-08T03:49:58;12.82;;;8.52;;
38717;SDS011;24468;52.128;9.278;2022-12-08T03:52:24;12.73;;;9.18;;
38717;SDS011;24468;52.128;9.278;2022-12-08T03:54:49;10.43;;;8.55;;
38717;SDS011;24468;52.128;9.278;2022-12-08T03:57:15;11.88;;;7.22;;
38717;SDS011;24468;52.128;9.278;2022-12-08T03:59:40;7.57;;;6.43;;
38717;SDS011;24468;52.128;9.278;2022-12-08T04:02:06;10.02;;;6.75;;
38717;SDS011;24468;52.128;9.278;2022-12-08T04:04:31;11.88;;;7.80;;
38717;SDS011;24468;52.128;9.278;2022-12-08T04:06:57;9.07;;;6.82;;
38717;SDS011;24468;52.128;9.278;2022-12-08T04:09:22;10.13;;;8.02;;
38717;SDS011;24468;52.128;9.278;2022-12-08T04:11:48;12.68;;;8.18;;
38717;SDS011;24468;52.128;9.278;2022-12-08T04:14:14;14.48;;;7.35;;
38717;SDS011;24468;52.128;9.278;2022-12-08T04:16:39;12.70;;;8.35;;
38717;SDS011;24468;52.128;9.278;2022-12-08T04:19:05;13.30;;;7.93;;
38717;SDS011;24468;52.128;9.278;2022-12-08T04:21:30;10.48;;;7.78;;
38717;SDS011;24468;52.128;9.278;2022-12-08T04:23:56;12.52;;;7.90;;
38717;SDS011;24468;52.128;9.278;2022-12-08T04:26:22;10.73;;;8.32;;
38717;SDS011;24468;52.128;9.278;2022-12-08T04:28:47;13.57;;;9.38;;
38717;SDS011;24468;52.128;9.278;2022-12-08T04:31:13;13.75;;;8.45;;
38717;SDS011;24468;52.128;9.278;2022-12-08T04:33:38;11.50;;;9.07;;
38717;SDS011;24468;52.128;9.278;2022-12-08T04:36:04;10.15;;;8.77;;
38717;SDS011;24468;52.128;9.278;2022-12-08T04:38:30;12.57;;;10.35;;
38717;SDS011;24468;52.128;9.278;2022-12-08T04:40:57;15.95;;;12.10;;
38717;SDS011;24468;52.128;9.278;2022-12-08T04:43:22;13.57;;;10.70;;
38717;SDS011;24468;52.128;9.278;2022-12-08T04:45:48;16.30;;;12.27;;
38717;SDS011;24468;52.128;9.278;2022-12-08T04:48:14;18.08;;;12.73;;
38717;SDS011;24468;52.128;9.278;2022-12-08T04:50:40;14.57;;;12.10;;
38717;SDS011;24468;52.128;9.278;2022-12-08T04:53:08;18.40;;;13.52;;
38717;SDS011;24468;52.128;9.278;2022-12-08T04:55:39;15.60;;;13.63;;
38717;SDS011;24468;52.128;9.278;2022-12-08T04:58:10;15.55;;;12.65;;
38717;SDS011;24468;52.128;9.278;2022-12-08T05:00:37;17.10;;;13.73;;
38717;SDS011;24468;52.128;9.278;2022-12-08T05:03:03;13.95;;;12.15;;
38717;SDS011;24468;52.128;9.278;2022-12-08T05:05:29;15.93;;;12.65;;
38717;SDS011;24468;52.128;9.278;2022-12-08T05:07:54;18.95;;;13.52;;
38717;SDS011;24468;52.128;9.278;2022-12-08T05:10:20;17.85;;;13.30;;
38717;SDS011;24468;52.128;9.278;2022-12-08T05:12:46;20.83;;;14.75;;
38717;SDS011;24468;52.128;9.278;2022-12-08T05:15:12;20.23;;;13.77;;
38717;SDS011;24468;52.128;9.278;2022-12-08T05:17:37;18.73;;;13.63;;
38717;SDS011;24468;52.128;9.278;2022-12-08T05:20:03;20.52;;;13.80;;
38717;SDS011;24468;52.128;9.278;2022-12-08T05:22:30;17.80;;;14.30;;
38717;SDS011;24468;52.128;9.278;2022-12-08T05:24:55;17.27;;;14.75;;
38717;SDS011;24468;52.128;9.278;2022-12-08T05:27:21;14.55;;;12.65;;
38717;SDS011;24468;52.128;9.278;2022-12-08T05:29:46;14.85;;;12.82;;
38717;SDS011;24468;52.128;9.278;2022-12-08T05:32:12;12.38;;;10.43;;
38717;SDS011;24468;52.128;9.278;2022-12-08T05:34:38;13.13;;;10.13;;
38717;SDS011;24468;52.128;9.278;2022-12-08T05:37:03;11.52;;;10.32;;
38717;SDS011;24468;52.128;9.278;2022-12-08T05:39:29;13.00;;;10.63;;
38717;SDS011;24468;52.128;9.278;2022-12-08T05:41:55;16.38;;;11.20;;
38717;SDS011;24468;52.128;9.278;2022-12-08T05:44:20;15.57;;;13.05;;
38717;SDS011;24468;52.128;9.278;2022-12-08T05:46:46;16.13;;;12.18;;
38717;SDS011;24468;52.128;9.278;2022-12-08T05:49:11;13.18;;;11.45;;
38717;SDS011;24468;52.128;9.278;2022-12-08T05:51:37;14.23;;;12.07;;
38717;SDS011;24468;52.128;9.278;2022-12-08T05:54:02;14.50;;;12.02;;
38717;SDS011;24468;52.128;9.278;2022-12-08T05:56:28;15.48;;;12.25;;
38717;SDS011;24468;52.128;9.278;2022-12-08T05:58:53;14.10;;;12.60;;
38717;SDS011;24468;52.128;9.278;2022-12-08T06:01:20;16.55;;;12.88;;
38717;SDS011;24468;52.128;9.278;2022-12-08T06:03:48;14.77;;;12.80;;
38717;SDS011;24468;52.128;9.278;2022-12-08T06:06:14;15.55;;;12.55;;
38717;SDS011;24468;52.128;9.278;2022-12-08T06:08:40;15.10;;;13.10;;
38717;SDS011;24468;52.128;9.278;2022-12-08T06:11:05;15.77;;;12.65;;
38717;SDS011;24468;52.128;9.278;2022-12-08T06:13:31;14.07;;;12.52;;
38717;SDS011;24468;52.128;9.278;2022-12-08T06:16:02;14.02;;;12.52;;
38717;SDS011;24468;52.128;9.278;2022-12-08T06:18:30;18.58;;;13.10;;
38717;SDS011;24468;52.128;9.278;2022-12-08T06:21:03;15.57;;;12.63;;
38717;SDS011;24468;52.128;9.278;2022-12-08T06:23:31;17.13;;;12.52;;
38717;SDS011;24468;52.128;9.278;2022-12-08T06:26:00;14.93;;;12.50;;
38717;SDS011;24468;52.128;9.278;2022-12-08T06:28:33;16.17;;;12.05;;
38717;SDS011;24468;52.128;9.278;2022-12-08T06:30:59;14.52;;;12.27;;
38717;SDS011;24468;52.128;9.278;2022-12-08T06:33:32;16.17;;;13.10;;
38717;SDS011;24468;52.128;9.278;2022-12-08T06:35:58;15.93;;;13.18;;
38717;SDS011;24468;52.128;9.278;2022-12-08T06:38:23;15.82;;;14.20;;
38717;SDS011;24468;52.128;9.278;2022-12-08T06:40:55;15.45;;;13.38;;
38717;SDS011;24468;52.128;9.278;2022-12-08T06:43:22;16.40;;;14.60;;
38717;SDS011;24468;52.128;9.278;2022-12-08T06:45:48;17.95;;;14.40;;
38717;SDS011;24468;52.128;9.278;2022-12-08T06:48:14;20.52;;;16.05;;
38717;SDS011;24468;52.128;9.278;2022-12-08T06:50:40;15.73;;;13.82;;
38717;SDS011;24468;52.128;9.278;2022-12-08T06:53:06;18.02;;;15.30;;
38717;SDS011;24468;52.128;9.278;2022-12-08T06:55:32;17.00;;;13.65;;
38717;SDS011;24468;52.128;9.278;2022-12-08T06:57:57;16.77;;;13.70;;
38717;SDS011;24468;52.128;9.278;2022-12-08T07:00:23;16.60;;;14.02;;
38717;SDS011;24468;52.128;9.278;2022-12-08T07:02:49;17.08;;;13.75;;
38717;SDS011;24468;52.128;9.278;2022-12-08T07:05:15;14.63;;;12.65;;
38717;SDS011;24468;52.128;9.278;2022-12-08T07:07:41;14.23;;;12.05;;
38717;SDS011;24468;52.128;9.278;2022-12-08T07:10:06;14.15;;;12.73;;
38717;SDS011;24468;52.128;9.278;2022-12-08T07:12:32;12.07;;;10.57;;
38717;SDS011;24468;52.128;9.278;2022-12-08T07:14:58;11.55;;;10.32;;
38717;SDS011;24468;52.128;9.278;2022-12-08T07:17:23;12.43;;;10.00;;
38717;SDS011;24468;52.128;9.278;2022-12-08T07:19:49;12.05;;;9.82;;
38717;SDS011;24468;52.128;9.278;2022-12-08T07:22:14;9.05;;;8.15;;
38717;SDS011;24468;52.128;9.278;2022-12-08T07:24:40;11.85;;;8.90;;
38717;SDS011;24468;52.128;9.278;2022-12-08T07:27:06;10.25;;;8.57;;
38717;SDS011;24468;52.128;9.278;2022-12-08T07:29:31;10.40;;;9.30;;
38717;SDS011;24468;52.128;9.278;2022-12-08T07:31:57;11.75;;;10.18;;
38717;SDS011;24468;52.128;9.278;2022-12-08T07:34:22;10.27;;;9.18;;
38717;SDS011;24468;52.128;9.278;2022-12-08T07:36:48;11.15;;;9.68;;
38717;SDS011;24468;52.128;9.278;2022-12-08T07:39:13;11.38;;;10.07;;
38717;SDS011;24468;52.128;9.278;2022-12-08T07:41:39;11.55;;;9.80;;
38717;SDS011;24468;52.128;9.278;2022-12-08T07:44:04;12.80;;;11.00;;
38717;SDS011;24468;52.128;9.278;2022-12-08T07:46:30;11.48;;;10.00;;
38717;SDS011;24468;52.128;9.278;2022-12-08T07:48:55;13.18;;;10.77;;
38717;SDS011;24468;52.128;9.278;2022-12-08T07:51:21;11.57;;;10.48;;
38717;SDS011;24468;52.128;9.278;2022-12-08T07:53:49;12.38;;;11.07;;
38717;SDS011;24468;52.128;9.278;2022-12-08T07:56:16;13.25;;;11.40;;
38717;SDS011;24468;52.128;9.278;2022-12-08T07:58:41;11.82;;;10.63;;
38717;SDS011;24468;52.128;9.278;2022-12-08T08:01:22;11.93;;;10.57;;
38717;SDS011;24468;52.128;9.278;2022-12-08T08:03:50;12.27;;;10.68;;
38717;SDS011;24468;52.128;9.278;2022-12-08T08:06:15;12.85;;;11.52;;
38717;SDS011;24468;52.128;9.278;2022-12-08T08:08:41;11.95;;;10.70;;
38717;SDS011;24468;52.128;9.278;2022-12-08T08:11:07;11.52;;;10.15;;
38717;SDS011;24468;52.128;9.278;2022-12-08T08:13:32;14.65;;;12.40;;
38717;SDS011;24468;52.128;9.278;2022-12-08T08:16:02;15.70;;;12.02;;
38717;SDS011;24468;52.128;9.278;2022-12-08T08:18:30;13.10;;;11.70;;
38717;SDS011;24468;52.128;9.278;2022-12-08T08:20:57;15.63;;;12.90;;
38717;SDS011;24468;52.128;9.278;2022-12-08T08:23:22;13.75;;;12.30;;
38717;SDS011;24468;52.128;9.278;2022-12-08T08:25:48;15.50;;;12.07;;
38717;SDS011;24468;52.128;9.278;2022-12-08T08:28:13;12.20;;;10.63;;
38717;SDS011;24468;52.128;9.278;2022-12-08T08:30:39;13.85;;;11.25;;
38717;SDS011;24468;52.128;9.278;2022-12-08T08:33:05;12.48;;;11.15;;
38717;SDS011;24468;52.128;9.278;2022-12-08T08:35:32;13.98;;;11.65;;
38717;SDS011;24468;52.128;9.278;2022-12-08T08:37:59;10.75;;;9.65;;
38717;SDS011;24468;52.128;9.278;2022-12-08T08:40:25;11.85;;;10.60;;
38717;SDS011;24468;52.128;9.278;2022-12-08T08:42:50;11.13;;;9.93;;
38717;SDS011;24468;52.128;9.278;2022-12-08T08:45:16;11.05;;;9.75;;
38717;SDS011;24468;52.128;9.278;2022-12-08T08:47:41;12.23;;;10.93;;
38717;SDS011;24468;52.128;9.278;2022-12-08T08:50:07;11.25;;;8.88;;
38717;SDS011;24468;52.128;9.278;2022-12-08T08:52:33;10.57;;;9.48;;
38717;SDS011;24468;52.128;9.278;2022-12-08T08:54:58;12.10;;;9.90;;
38717;SDS011;24468;52.128;9.278;2022-12-08T08:57:24;10.32;;;8.85;;
38717;SDS011;24468;52.128;9.278;2022-12-08T08:59:49;11.07;;;9.10;;
38717;SDS011;24468;52.128;9.278;2022-12-08T09:02:16;12.00;;;9.15;;
38717;SDS011;24468;52.128;9.278;2022-12-08T09:04:43;11.07;;;9.05;;
38717;SDS011;24468;52.128;9.278;2022-12-08T09:07:09;9.63;;;8.65;;
38717;SDS011;24468;52.128;9.278;2022-12-08T09:09:35;10.80;;;9.15;;
38717;SDS011;24468;52.128;9.278;2022-12-08T09:12:01;12.65;;;10.52;;
38717;SDS011;24468;52.128;9.278;2022-12-08T09:14:27;8.82;;;7.97;;
38717;SDS011;24468;52.128;9.278;2022-12-08T09:16:53;8.38;;;7.53;;
38717;SDS011;24468;52.128;9.278;2022-12-08T09:19:18;11.18;;;9.82;;
38717;SDS011;24468;52.128;9.278;2022-12-08T09:21:44;13.30;;;10.82;;
38717;SDS011;24468;52.128;9.278;2022-12-08T09:24:10;13.18;;;10.77;;
38717;SDS011;24468;52.128;9.278;2022-12-08T09:26:39;9.90;;;8.57;;
38717;SDS011;24468;52.128;9.278;2022-12-08T09:29:06;8.05;;;7.28;;
38717;SDS011;24468;52.128;9.278;2022-12-08T09:31:32;8.48;;;7.55;;
38717;SDS011;24468;52.128;9.278;2022-12-08T09:33:58;7.85;;;6.95;;
38717;SDS011;24468;52.128;9.278;2022-12-08T09:36:24;8.50;;;7.60;;
38717;SDS011;24468;52.128;9.278;2022-12-08T09:38:50;9.10;;;8.20;;
38717;SDS011;24468;52.128;9.278;2022-12-08T09:41:36;11.38;;;9.38;;
38717;SDS011;24468;52.128;9.278;2022-12-08T09:44:30;8.32;;;7.40;;
38717;SDS011;24468;52.128;9.278;2022-12-08T09:47:35;11.32;;;8.13;;
38717;SDS011;24468;52.128;9.278;2022-12-08T09:50:10;11.38;;;8.95;;
38717;SDS011;24468;52.128;9.278;2022-12-08T09:53:13;11.27;;;9.65;;
38717;SDS011;24468;52.128;9.278;2022-12-08T09:55:51;7.88;;;7.05;;
38717;SDS011;24468;52.128;9.278;2022-12-08T10:01:26;8.25;;;6.90;;
38717;SDS011;24468;52.128;9.278;2022-12-08T10:03:55;6.88;;;5.72;;
38717;SDS011;24468;52.128;9.278;2022-12-08T10:09:24;5.28;;;4.78;;
38717;SDS011;24468;52.128;9.278;2022-12-08T10:15:25;5.63;;;5.03;;
38717;SDS011;24468;52.128;9.278;2022-12-08T10:17:54;6.07;;;5.47;;
38717;SDS011;24468;52.128;9.278;2022-12-08T10:20:22;7.72;;;6.00;;
38717;SDS011;24468;52.128;9.278;2022-12-08T10:26:03;7.45;;;6.70;;
38717;SDS011;24468;52.128;9.278;2022-12-08T10:28:38;6.93;;;6.13;;
38717;SDS011;24468;52.128;9.278;2022-12-08T10:31:03;5.82;;;5.13;;
38717;SDS011;24468;52.128;9.278;2022-12-08T10:33:29;5.65;;;4.47;;
38717;SDS011;24468;52.128;9.278;2022-12-08T10:35:57;6.35;;;4.63;;
38717;SDS011;24468;52.128;9.278;2022-12-08T10:38:36;3.60;;;3.15;;
38717;SDS011;24468;52.128;9.278;2022-12-08T10:43:38;3.70;;;2.60;;
38717;SDS011;24468;52.128;9.278;2022-12-08T10:46:23;2.42;;;2.22;;
38717;SDS011;24468;52.128;9.278;2022-12-08T10:48:52;2.65;;;1.83;;
38717;SDS011;24468;52.128;9.278;2022-12-08T10:51:36;2.05;;;1.85;;
38717;SDS011;24468;52.128;9.278;2022-12-08T10:54:23;1.13;;;1.02;;
38717;SDS011;24468;52.128;9.278;2022-12-08T10:56:58;1.10;;;1.00;;
38717;SDS011;24468;52.128;9.278;2022-12-08T10:59:23;1.27;;;1.15;;
38717;SDS011;24468;52.128;9.278;2022-12-08T11:01:50;2.17;;;1.70;;
38717;SDS011;24468;52.128;9.278;2022-12-08T11:04:22;2.65;;;1.92;;
38717;SDS011;24468;52.128;9.278;2022-12-08T11:06:58;2.13;;;1.77;;
38717;SDS011;24468;52.128;9.278;2022-12-08T11:12:18;7.10;;;5.72;;
38717;SDS011;24468;52.128;9.278;2022-12-08T11:19:55;2.90;;;2.05;;
38717;SDS011;24468;52.128;9.278;2022-12-08T11:22:34;1.42;;;1.33;;
38717;SDS011;24468;52.128;9.278;2022-12-08T11:27:32;1.42;;;1.33;;
38717;SDS011;24468;52.128;9.278;2022-12-08T11:30:00;1.90;;;1.80;;
38717;SDS011;24468;52.128;9.278;2022-12-08T11:32:36;1.80;;;1.38;;
38717;SDS011;24468;52.128;9.278;2022-12-08T11:35:05;1.92;;;1.17;;
38717;SDS011;24468;52.128;9.278;2022-12-08T11:37:36;2.45;;;1.48;;
38717;SDS011;24468;52.128;9.278;2022-12-08T11:40:15;1.53;;;1.43;;
38717;SDS011;24468;52.128;9.278;2022-12-08T11:42:59;2.30;;;2.00;;
38717;SDS011;24468;52.128;9.278;2022-12-08T11:45:39;2.00;;;1.80;;
38717;SDS011;24468;52.128;9.278;2022-12-08T11:48:10;2.75;;;2.45;;
38717;SDS011;24468;52.128;9.278;2022-12-08T11:50:42;3.10;;;2.80;;
38717;SDS011;24468;52.128;9.278;2022-12-08T11:54:01;2.53;;;2.00;;
38717;SDS011;24468;52.128;9.278;2022-12-08T11:56:47;2.30;;;2.10;;
38717;SDS011;24468;52.128;9.278;2022-12-08T11:59:18;2.70;;;2.50;;
38717;SDS011;24468;52.128;9.278;2022-12-08T12:02:06;3.20;;;2.75;;
38717;SDS011;24468;52.128;9.278;2022-12-08T12:10:42;3.40;;;3.03;;
38717;SDS011;24468;52.128;9.278;2022-12-08T12:13:40;3.22;;;2.92;;
38717;SDS011;24468;52.128;9.278;2022-12-08T12:19:35;3.78;;;3.47;;
38717;SDS011;24468;52.128;9.278;2022-12-08T12:22:10;5.10;;;4.53;;
38717;SDS011;24468;52.128;9.278;2022-12-08T12:24:44;3.88;;;3.55;;
38717;SDS011;24468;52.128;9.278;2022-12-08T12:27:19;4.45;;;4.03;;
38717;SDS011;24468;52.128;9.278;2022-12-08T12:32:42;4.45;;;3.88;;
38717;SDS011;24468;52.128;9.278;2022-12-08T12:35:19;5.70;;;4.47;;
38717;SDS011;24468;52.128;9.278;2022-12-08T12:40:27;4.28;;;3.90;;
38717;SDS011;24468;52.128;9.278;2022-12-08T12:45:32;4.43;;;3.83;;
38717;SDS011;24468;52.128;9.278;2022-12-08T13:01:34;4.20;;;3.80;;
38717;SDS011;24468;52.128;9.278;2022-12-08T13:03:37;3.97;;;3.58;;
38717;SDS011;24468;52.128;9.278;2022-12-08T13:06:36;4.38;;;2.72;;
38717;SDS011;24468;52.128;9.278;2022-12-08T13:09:28;4.65;;;3.35;;
38717;SDS011;24468;52.128;9.278;2022-12-08T13:12:10;3.33;;;3.03;;
38717;SDS011;24468;52.128;9.278;2022-12-08T13:14:48;3.92;;;3.45;;
38717;SDS011;24468;52.128;9.278;2022-12-08T13:17:16;4.05;;;3.05;;
38717;SDS011;24468;52.128;9.278;2022-12-08T13:19:52;3.47;;;2.90;;
38717;SDS011;24468;52.128;9.278;2022-12-08T13:30:56;3.20;;;2.75;;
38717;SDS011;24468;52.128;9.278;2022-12-08T13:33:27;4.15;;;3.10;;
38717;SDS011;24468;52.128;9.278;2022-12-08T13:36:09;3.33;;;2.92;;
38717;SDS011;24468;52.128;9.278;2022-12-08T13:38:59;2.97;;;2.63;;
38717;SDS011;24468;52.128;9.278;2022-12-08T13:41:32;3.75;;;3.35;;
38717;SDS011;24468;52.128;9.278;2022-12-08T13:44:08;3.05;;;2.40;;
38717;SDS011;24468;52.128;9.278;2022-12-08T13:46:48;3.67;;;2.75;;
38717;SDS011;24468;52.128;9.278;2022-12-08T13:52:20;3.93;;;2.87;;
38717;SDS011;24468;52.128;9.278;2022-12-08T13:55:00;2.78;;;2.47;;
38717;SDS011;24468;52.128;9.278;2022-12-08T13:57:29;4.80;;;3.03;;
38717;SDS011;24468;52.128;9.278;2022-12-08T14:00:03;2.60;;;2.38;;
38717;SDS011;24468;52.128;9.278;2022-12-08T14:02:38;3.13;;;2.80;;
38717;SDS011;24468;52.128;9.278;2022-12-08T14:05:08;4.07;;;3.60;;
38717;SDS011;24468;52.128;9.278;2022-12-08T14:07:34;3.80;;;3.47;;
38717;SDS011;24468;52.128;9.278;2022-12-08T14:10:02;3.88;;;3.40;;
38717;SDS011;24468;52.128;9.278;2022-12-08T14:12:39;4.88;;;2.92;;
38717;SDS011;24468;52.128;9.278;2022-12-08T14:15:10;3.22;;;2.70;;
38717;SDS011;24468;52.128;9.278;2022-12-08T14:17:39;4.35;;;3.95;;
38717;SDS011;24468;52.128;9.278;2022-12-08T14:22:37;4.05;;;3.63;;
38717;SDS011;24468;52.128;9.278;2022-12-08T14:25:06;3.45;;;3.15;;
38717;SDS011;24468;52.128;9.278;2022-12-08T14:27:37;3.97;;;3.58;;
38717;SDS011;24468;52.128;9.278;2022-12-08T14:37:32;5.00;;;3.22;;
38717;SDS011;24468;52.128;9.278;2022-12-08T14:40:05;3.70;;;3.33;;
38717;SDS011;24468;52.128;9.278;2022-12-08T14:42:42;4.53;;;3.75;;
38717;SDS011;24468;52.128;9.278;2022-12-08T14:45:14;5.32;;;3.78;;
38717;SDS011;24468;52.128;9.278;2022-12-08T14:47:41;4.75;;;3.67;;
38717;SDS011;24468;52.128;9.278;2022-12-08T14:53:15;3.40;;;3.10;;
38717;SDS011;24468;52.128;9.278;2022-12-08T14:55:42;4.03;;;3.20;;
38717;SDS011;24468;52.128;9.278;2022-12-08T14:58:19;4.10;;;3.70;;
38717;SDS011;24468;52.128;9.278;2022-12-08T15:00:56;7.10;;;5.35;;
38717;SDS011;24468;52.128;9.278;2022-12-08T15:03:27;8.98;;;6.75;;
38717;SDS011;24468;52.128;9.278;2022-12-08T15:05:55;5.63;;;4.55;;
38717;SDS011;24468;52.128;9.278;2022-12-08T15:13:48;3.33;;;2.92;;
38717;SDS011;24468;52.128;9.278;2022-12-08T15:16:26;5.32;;;3.50;;
38717;SDS011;24468;52.128;9.278;2022-12-08T15:19:13;5.03;;;3.92;;
38717;SDS011;24468;52.128;9.278;2022-12-08T15:21:39;3.95;;;3.55;;
38717;SDS011;24468;52.128;9.278;2022-12-08T15:24:05;3.97;;;3.58;;
38717;SDS011;24468;52.128;9.278;2022-12-08T15:26:41;7.20;;;3.33;;
38717;SDS011;24468;52.128;9.278;2022-12-08T15:31:58;2.92;;;2.65;;
38717;SDS011;24468;52.128;9.278;2022-12-08T15:34:25;3.17;;;2.88;;
38717;SDS011;24468;52.128;9.278;2022-12-08T15:36:52;3.28;;;2.97;;
38717;SDS011;24468;52.128;9.278;2022-12-08T15:42:01;9.13;;;6.95;;
38717;SDS011;24468;52.128;9.278;2022-12-08T15:44:30;25.00;;;14.85;;
38717;SDS011;24468;52.128;9.278;2022-12-08T15:46:57;21.13;;;14.05;;
38717;SDS011;24468;52.128;9.278;2022-12-08T15:49:23;32.35;;;18.17;;
38717;SDS011;24468;52.128;9.278;2022-12-08T15:51:50;14.98;;;8.07;;
38717;SDS011;24468;52.128;9.278;2022-12-08T15:54:16;8.48;;;5.68;;
38717;SDS011;24468;52.128;9.278;2022-12-08T15:56:46;10.05;;;5.03;;
38717;SDS011;24468;52.128;9.278;2022-12-08T15:59:21;6.30;;;4.18;;
38717;SDS011;24468;52.128;9.278;2022-12-08T16:01:49;8.02;;;5.45;;
38717;SDS011;24468;52.128;9.278;2022-12-08T16:04:16;11.32;;;6.55;;
38717;SDS011;24468;52.128;9.278;2022-12-08T16:06:45;11.23;;;8.20;;
38717;SDS011;24468;52.128;9.278;2022-12-08T16:12:04;22.00;;;13.25;;
38717;SDS011;24468;52.128;9.278;2022-12-08T16:14:56;16.38;;;9.50;;
38717;SDS011;24468;52.128;9.278;2022-12-08T16:17:23;10.85;;;7.15;;
38717;SDS011;24468;52.128;9.278;2022-12-08T16:19:49;13.27;;;8.15;;
38717;SDS011;24468;52.128;9.278;2022-12-08T16:22:15;13.73;;;7.97;;
38717;SDS011;24468;52.128;9.278;2022-12-08T16:24:44;12.52;;;8.70;;
38717;SDS011;24468;52.128;9.278;2022-12-08T16:27:20;6.45;;;5.32;;
38717;SDS011;24468;52.128;9.278;2022-12-08T16:29:48;10.30;;;7.93;;
38717;SDS011;24468;52.128;9.278;2022-12-08T16:32:15;7.90;;;5.65;;
38717;SDS011;24468;52.128;9.278;2022-12-08T16:34:41;7.30;;;5.10;;
38717;SDS011;24468;52.128;9.278;2022-12-08T16:37:07;5.32;;;4.75;;
38717;SDS011;24468;52.128;9.278;2022-12-08T16:39:46;6.55;;;5.35;;
38717;SDS011;24468;52.128;9.278;2022-12-08T16:42:17;6.28;;;5.00;;
38717;SDS011;24468;52.128;9.278;2022-12-08T16:45:04;6.65;;;5.65;;
38717;SDS011;24468;52.128;9.278;2022-12-08T16:47:31;7.47;;;6.07;;
38717;SDS011;24468;52.128;9.278;2022-12-08T16:49:57;17.38;;;12.52;;
38717;SDS011;24468;52.128;9.278;2022-12-08T16:52:23;8.43;;;5.93;;
38717;SDS011;24468;52.128;9.278;2022-12-08T16:54:48;8.18;;;6.22;;
38717;SDS011;24468;52.128;9.278;2022-12-08T16:57:14;9.50;;;7.38;;
38717;SDS011;24468;52.128;9.278;2022-12-08T16:59:40;9.57;;;7.40;;
38717;SDS011;24468;52.128;9.278;2022-12-08T17:02:05;9.02;;;7.75;;
38717;SDS011;24468;52.128;9.278;2022-12-08T17:04:31;9.88;;;7.93;;
38717;SDS011;24468;52.128;9.278;2022-12-08T17:06:57;10.63;;;7.22;;